MMZO/ZLO METAR and TAF weather

Enter ICAO airport designator
Station Type Date Time Source
MMZO METAR 2022/11/26 01:40 UTC NOAA

MMZO 260140Z 00000KT 12SM SKC 27/23 A2993


Station Type Date Time Source
MMZO Decoded METAR 2022/11/26 01:40 UTC NOAA

Manzanillo International , Mexico (MMZO) 19-09N 104-34W
Nov 25, 2022 - 08:40 PM EST / 2022.11.26 0140 UTC
Wind: Calm:0
Visibility: 12 mile(s):0
Sky conditions: clear
Temperature: 80 F (27 C)
Dew Point: 73 F (23 C)
Relative Humidity: 78%
Pressure (altimeter): 29.93 in. Hg (1013 hPa)
ob: MMZO 260140Z 00000KT 12SM SKC 27/23 A2993
cycle: 1

Station Type Date Time Source
MMZO TAF 2022/11/26 06:50 UTC NOAA

TAF MMZO 260437Z 2606/2706 00000KT P6SM SKC
FM261800 24012KT P6SM SCT020 SCT120 BKN250
FM270500 00000KT P6SM SKC

Example: see airport list